createdAt,value
2023-05-11T00:04:19.980Z,97808.25
2023-05-11T00:09:22.166Z,97802.94
2023-05-11T00:14:24.656Z,97794.94
2023-05-11T00:19:26.872Z,97790.38
2023-05-11T00:24:29.665Z,97796.94
2023-05-11T00:29:31.905Z,97790.91
2023-05-11T00:34:34.707Z,97793.34
2023-05-11T00:39:40.672Z,97791.63
2023-05-11T00:44:43.513Z,97785.75
2023-05-11T00:49:47.155Z,97793.38
2023-05-11T00:54:49.891Z,97787.41
2023-05-11T00:59:52.008Z,97782.38
2023-05-11T01:04:54.200Z,97786.94
2023-05-11T01:10:04.551Z,97788.31
2023-05-11T01:15:40.537Z,97788.78
2023-05-11T01:20:50.102Z,97788.34
2023-05-11T01:26:11.669Z,97783.88
2023-05-11T01:31:18.159Z,97781.16
2023-05-11T01:36:25.526Z,97788.09
2023-05-11T01:41:31.940Z,97782.06
2023-05-11T01:46:34.719Z,97781.31
2023-05-11T01:51:38.848Z,97782.56
2023-05-11T01:56:44.004Z,97772.97
2023-05-11T02:01:47.299Z,97792.88
2023-05-11T02:06:52.465Z,97781.88
2023-05-11T02:11:58.783Z,97784.06
2023-05-11T02:17:05.626Z,97796.78
2023-05-11T02:22:10.128Z,97790.50
2023-05-11T02:27:13.171Z,97789.84
2023-05-11T02:32:21.859Z,97787.22
2023-05-11T02:37:28.420Z,97784.53
2023-05-11T02:42:39.807Z,97790.53
2023-05-11T02:47:52.079Z,97784.53
2023-05-11T02:53:04.958Z,97787.59
2023-05-11T02:58:07.659Z,97787.03
2023-05-11T03:03:12.171Z,97772.13
2023-05-11T03:08:14.592Z,97782.13
2023-05-11T03:13:17.729Z,97781.53
2023-05-11T03:18:22.424Z,97777.16
2023-05-11T03:23:24.929Z,97774.16
2023-05-11T03:28:29.421Z,97774.28
2023-05-11T03:33:38.091Z,97769.28
2023-05-11T03:38:45.283Z,97767.78
2023-05-11T03:43:53.146Z,97765.97
2023-05-11T03:48:58.115Z,97768.06
2023-05-11T03:54:03.682Z,97766.41
2023-05-11T03:59:06.678Z,97759.56
2023-05-11T04:04:08.942Z,97763.53
2023-05-11T04:09:11.317Z,97754.66
2023-05-11T04:14:13.930Z,97758.66
2023-05-11T04:19:17.500Z,97746.22
2023-05-11T04:24:19.925Z,97755.41
2023-05-11T04:29:22.171Z,97755.81
2023-05-11T04:34:25.283Z,97761.03
2023-05-11T04:39:28.139Z,97771.56
2023-05-11T04:44:30.649Z,97764.16
2023-05-11T04:49:32.894Z,97765.59
2023-05-11T04:54:36.888Z,97763.19
2023-05-11T04:59:39.168Z,97767.28
2023-05-11T05:04:41.369Z,97775.94
2023-05-11T05:09:45.327Z,97771.06
2023-05-11T05:14:49.742Z,97776.41
2023-05-11T05:19:52.161Z,97779.44
2023-05-11T05:24:54.446Z,97777.91
2023-05-11T05:29:56.752Z,97779.31
2023-05-11T05:35:00.988Z,97786.13
2023-05-11T05:40:05.484Z,97781.09
2023-05-11T05:45:13.863Z,97782.25
2023-05-11T05:50:17.369Z,97787.59
2023-05-11T05:55:21.021Z,97788.22
2023-05-11T06:00:25.174Z,97792.78
2023-05-11T06:05:36.897Z,97789.69
2023-05-11T06:10:39.526Z,97800.16
2023-05-11T06:15:43.898Z,97789.53
2023-05-11T06:20:59.649Z,97795.47
2023-05-11T06:26:03.152Z,97792.16
2023-05-11T06:31:07.680Z,97798.72
2023-05-11T06:36:12.118Z,97795.94
2023-05-11T06:41:14.401Z,97799.09
2023-05-11T06:46:18.096Z,97799.69
2023-05-11T06:51:24.168Z,97795.97
2023-05-11T06:56:26.390Z,97801.09
2023-05-11T07:01:29.076Z,97800.56
2023-05-11T07:06:31.540Z,97793.56
2023-05-11T07:11:33.757Z,97798.75
2023-05-11T07:16:38.517Z,97807.91
2023-05-11T07:21:40.849Z,97809.38
2023-05-11T07:26:43.003Z,97803.47
2023-05-11T07:31:45.408Z,97814.06
2023-05-11T07:36:48.056Z,97807.81
2023-05-11T07:41:50.296Z,97813.72
2023-05-11T07:46:52.526Z,97809.44
2023-05-11T07:51:55.044Z,97807.63
2023-05-11T07:56:57.352Z,97812.81
2023-05-11T08:02:00.048Z,97808.66
2023-05-11T08:07:04.507Z,97807.88
2023-05-11T08:12:06.938Z,97809.59
2023-05-11T08:17:09.262Z,97813.94
2023-05-11T08:22:11.592Z,97811.38
2023-05-11T08:27:15.413Z,97814.75
2023-05-11T08:32:17.834Z,97813.97
2023-05-11T08:37:20.015Z,97814.91
2023-05-11T08:42:27.076Z,97813.06
2023-05-11T08:47:30.388Z,97812.13
2023-05-11T08:52:32.945Z,97814.66
2023-05-11T08:57:36.340Z,97815.66
2023-05-11T09:02:39.420Z,97819.59
2023-05-11T09:07:44.223Z,97814.78
2023-05-11T09:12:47.101Z,97812.84
2023-05-11T09:17:49.323Z,97808.38
2023-05-11T09:22:52.113Z,97818.03
2023-05-11T09:27:54.280Z,97814.88
2023-05-11T09:33:02.522Z,97811.97
2023-05-11T09:38:12.204Z,97803.94
2023-05-11T09:43:22.492Z,97811.34
2023-05-11T09:48:32.895Z,97806.06
2023-05-11T09:53:45.680Z,97812.72
2023-05-11T09:58:55.199Z,97812.50
2023-05-11T10:04:13.368Z,97816.31
2023-05-11T10:09:28.850Z,97809.22
2023-05-11T10:14:32.891Z,97808.28
2023-05-11T10:19:35.331Z,97799.56
2023-05-11T10:24:38.795Z,97804.09
2023-05-11T10:29:42.280Z,97800.66
2023-05-11T10:34:50.758Z,97795.16
2023-05-11T10:39:53.256Z,97804.22
2023-05-11T10:45:22.773Z,97795.72
2023-05-11T10:51:05.785Z,97789.38
2023-05-11T10:56:31.124Z,97792.41
2023-05-11T11:01:44.660Z,97791.47
2023-05-11T11:06:47.161Z,97788.16
2023-05-11T11:11:51.388Z,97785.97
2023-05-11T11:17:18.306Z,97781.16
2023-05-11T11:22:47.403Z,97788.66
2023-05-11T11:27:49.723Z,97791.34
2023-05-11T11:32:55.108Z,97785.84
2023-05-11T11:38:04.795Z,97789.13
2023-05-11T11:43:24.809Z,97789.28
2023-05-11T11:48:41.679Z,97779.88
2023-05-11T11:53:45.533Z,97784.66
2023-05-11T11:58:47.903Z,97786.91
2023-05-11T12:04:05.279Z,97783.94
2023-05-11T12:09:08.789Z,97781.88
2023-05-11T12:14:12.550Z,97775.84
2023-05-11T12:19:24.718Z,97770.97
2023-05-11T12:24:26.968Z,97774.53
2023-05-11T12:29:29.500Z,97770.81
2023-05-11T12:34:31.962Z,97767.72
2023-05-11T12:39:36.227Z,97768.19
2023-05-11T12:44:40.856Z,97761.34
2023-05-11T12:49:43.646Z,97771.13
2023-05-11T12:55:00.527Z,97759.19
2023-05-11T13:00:16.897Z,97751.97
2023-05-11T13:05:25.612Z,97739.19
2023-05-11T13:10:28.563Z,97744.81
2023-05-11T13:15:31.487Z,97732.47
2023-05-11T13:20:34.565Z,97733.09
2023-05-11T13:25:57.097Z,97728.63
2023-05-11T13:31:01.616Z,97726.88
2023-05-11T13:36:04.325Z,97729.84
2023-05-11T13:41:07.463Z,97724.59
2023-05-11T13:46:09.750Z,97716.50
2023-05-11T13:51:12.376Z,97707.59
2023-05-11T13:56:14.996Z,97703.91
2023-05-11T14:01:17.385Z,97706.91
2023-05-11T14:06:23.554Z,97707.19
2023-05-11T14:11:26.349Z,97693.56
2023-05-11T14:16:29.007Z,97697.38
2023-05-11T14:21:32.637Z,97688.69
2023-05-11T14:26:34.877Z,97686.47
2023-05-11T14:31:37.265Z,97688.03
2023-05-11T14:36:39.762Z,97687.53
2023-05-11T14:41:42.077Z,97680.72
2023-05-11T14:46:44.379Z,97673.38
2023-05-11T14:51:46.727Z,97671.47
2023-05-11T14:56:55.804Z,97668.72
2023-05-11T15:01:59.214Z,97667.06
2023-05-11T15:07:02.289Z,97662.31
2023-05-11T15:12:04.927Z,97673.88
2023-05-11T15:17:07.116Z,97675.16
2023-05-11T15:22:09.461Z,97666.94
2023-05-11T15:27:11.877Z,97665.34
2023-05-11T15:32:15.634Z,97661.59
2023-05-11T15:37:17.814Z,97664.75
2023-05-11T15:42:20.109Z,97651.69
2023-05-11T15:47:22.346Z,97660.41
2023-05-11T15:52:24.494Z,97666.47
2023-05-11T15:57:26.633Z,97665.22
2023-05-11T16:02:29.610Z,97672.50
2023-05-11T16:07:31.952Z,97669.56
2023-05-11T16:12:34.078Z,97666.75
2023-05-11T16:17:36.590Z,97668.13
2023-05-11T16:22:39.246Z,97664.81
2023-05-11T16:27:41.629Z,97670.22
2023-05-11T16:32:44.153Z,97668.28
2023-05-11T16:37:48.086Z,97663.56
2023-05-11T16:42:50.923Z,97663.28
2023-05-11T16:47:53.083Z,97663.72
2023-05-11T16:52:55.296Z,97668.59
2023-05-11T16:57:57.475Z,97667.44
2023-05-11T17:03:00.218Z,97668.13
2023-05-11T17:08:02.842Z,97673.53
2023-05-11T17:13:05.130Z,97669.78
2023-05-11T17:18:08.704Z,97660.28
2023-05-11T17:23:10.982Z,97670.47
2023-05-11T17:28:14.076Z,97665.03
2023-05-11T17:33:16.536Z,97660.16
2023-05-11T17:38:18.798Z,97674.66
2023-05-11T17:43:20.972Z,97670.50
2023-05-11T17:48:24.317Z,97673.91
2023-05-11T17:53:27.475Z,97676.22
2023-05-11T17:58:30.146Z,97657.63
2023-05-11T18:03:32.570Z,97669.03
2023-05-11T18:08:36.778Z,97677.72
2023-05-11T18:13:38.950Z,97683.78
2023-05-11T18:18:42.773Z,97680.66
2023-05-11T18:23:45.420Z,97680.41
2023-05-11T18:28:48.552Z,97688.13
2023-05-11T18:33:51.022Z,97694.94
2023-05-11T18:38:53.956Z,97693.97
2023-05-11T18:43:56.296Z,97693.66
2023-05-11T18:48:58.621Z,97691.91
2023-05-11T18:54:01.626Z,97699.50
2023-05-11T18:59:04.067Z,97708.38
2023-05-11T19:04:09.137Z,97705.09
2023-05-11T19:09:11.264Z,97708.41
2023-05-11T19:14:14.814Z,97707.25
2023-05-11T19:19:17.086Z,97709.59
2023-05-11T19:24:19.285Z,97717.72
2023-05-11T19:29:22.745Z,97715.78
2023-05-11T19:34:25.360Z,97721.09
2023-05-11T19:39:27.636Z,97719.69
2023-05-11T19:44:33.200Z,97734.38
2023-05-11T19:49:35.462Z,97732.00
2023-05-11T19:54:37.726Z,97728.09
2023-05-11T19:59:39.905Z,97735.28
2023-05-11T20:04:45.649Z,97732.38
2023-05-11T20:09:47.765Z,97729.69
2023-05-11T20:14:50.297Z,97724.78
2023-05-11T20:19:52.585Z,97724.34
2023-05-11T20:24:55.018Z,97725.13
2023-05-11T20:29:57.619Z,97719.44
2023-05-11T20:35:00.294Z,97725.94
2023-05-11T20:40:03.586Z,97722.94
2023-05-11T20:45:07.632Z,97722.16
2023-05-11T20:50:10.647Z,97716.47
2023-05-11T20:55:12.882Z,97725.09
2023-05-11T21:00:16.435Z,97724.63
2023-05-11T21:05:18.914Z,97728.31
2023-05-11T21:10:21.568Z,97722.44
2023-05-11T21:15:23.785Z,97716.38
2023-05-11T21:20:25.920Z,97726.75
2023-05-11T21:25:28.170Z,97715.47
2023-05-11T21:30:30.924Z,97720.56
2023-05-11T21:35:33.327Z,97722.94
2023-05-11T21:40:35.740Z,97723.38
2023-05-11T21:45:37.858Z,97729.06
2023-05-11T21:50:40.092Z,97728.66
2023-05-11T21:55:42.274Z,97720.88
2023-05-11T22:00:45.442Z,97723.91
2023-05-11T22:05:47.858Z,97728.56
2023-05-11T22:10:50.002Z,97727.00
2023-05-11T22:15:52.748Z,97728.97
2023-05-11T22:20:54.956Z,97724.00
2023-05-11T22:25:57.026Z,97722.53
2023-05-11T22:31:00.261Z,97723.84
2023-05-11T22:36:02.556Z,97726.50
2023-05-11T22:41:06.530Z,97730.72
2023-05-11T22:46:08.926Z,97727.63
2023-05-11T22:51:11.189Z,97731.38
2023-05-11T22:56:13.576Z,97727.34
2023-05-11T23:01:16.052Z,97728.28
2023-05-11T23:06:18.505Z,97723.25
2023-05-11T23:11:20.618Z,97722.94
2023-05-11T23:16:22.882Z,97713.22
2023-05-11T23:21:25.046Z,97720.75
2023-05-11T23:26:27.328Z,97717.81
2023-05-11T23:31:32.366Z,97717.13
2023-05-11T23:36:35.208Z,97723.84
2023-05-11T23:41:37.347Z,97719.19
2023-05-11T23:46:39.471Z,97718.97
2023-05-11T23:51:41.696Z,97705.94
2023-05-11T23:56:44.368Z,97704.41
